sensor_id;sensor_type;location;lat;lon;timestamp;pressure;altitude;pressure_sealevel;temperature;humidity
9899;BME280;4988;49.238;6.698;2023-05-01T00:00:21;99098.63;;;10.01;91.03
9899;BME280;4988;49.238;6.698;2023-05-01T00:02:46;99094.84;;;10.07;91.58
9899;BME280;4988;49.238;6.698;2023-05-01T00:05:11;99092.72;;;10.15;91.02
9899;BME280;4988;49.238;6.698;2023-05-01T00:07:37;99094.19;;;10.21;91.12
9899;BME280;4988;49.238;6.698;2023-05-01T00:10:02;99081.63;;;10.24;90.69
9899;BME280;4988;49.238;6.698;2023-05-01T00:12:27;99080.34;;;10.33;90.70
9899;BME280;4988;49.238;6.698;2023-05-01T00:14:53;99082.06;;;10.34;90.89
9899;BME280;4988;49.238;6.698;2023-05-01T00:17:19;99080.25;;;10.35;90.56
9899;BME280;4988;49.238;6.698;2023-05-01T00:19:53;99077.75;;;10.32;91.04
9899;BME280;4988;49.238;6.698;2023-05-01T00:22:18;99081.22;;;10.34;91.67
9899;BME280;4988;49.238;6.698;2023-05-01T00:24:43;99075.19;;;10.30;90.66
9899;BME280;4988;49.238;6.698;2023-05-01T00:27:10;99074.25;;;10.31;91.14
9899;BME280;4988;49.238;6.698;2023-05-01T00:29:35;99067.13;;;10.32;91.16
9899;BME280;4988;49.238;6.698;2023-05-01T00:32:01;99066.09;;;10.34;91.26
9899;BME280;4988;49.238;6.698;2023-05-01T00:34:26;99069.44;;;10.39;90.79
9899;BME280;4988;49.238;6.698;2023-05-01T00:36:51;99063.91;;;10.44;90.73
9899;BME280;4988;49.238;6.698;2023-05-01T00:39:16;99069.09;;;10.47;89.89
9899;BME280;4988;49.238;6.698;2023-05-01T00:41:42;99062.81;;;10.48;89.45
9899;BME280;4988;49.238;6.698;2023-05-01T00:44:07;99062.97;;;10.45;89.89
9899;BME280;4988;49.238;6.698;2023-05-01T00:46:33;99054.63;;;10.34;91.04
9899;BME280;4988;49.238;6.698;2023-05-01T00:48:59;99057.47;;;10.29;91.49
9899;BME280;4988;49.238;6.698;2023-05-01T00:51:28;99054.91;;;10.27;91.39
9899;BME280;4988;49.238;6.698;2023-05-01T00:53:54;99047.84;;;10.26;90.41
9899;BME280;4988;49.238;6.698;2023-05-01T00:56:20;99050.84;;;10.19;89.99
9899;BME280;4988;49.238;6.698;2023-05-01T00:58:49;99050.63;;;10.23;90.21
9899;BME280;4988;49.238;6.698;2023-05-01T01:01:19;99048.13;;;10.20;89.88
9899;BME280;4988;49.238;6.698;2023-05-01T01:03:45;99040.91;;;10.22;90.29
9899;BME280;4988;49.238;6.698;2023-05-01T01:06:31;99042.81;;;10.20;90.33
9899;BME280;4988;49.238;6.698;2023-05-01T01:14:18;99034.06;;;9.97;90.46
9899;BME280;4988;49.238;6.698;2023-05-01T01:16:53;99027.53;;;9.86;90.26
9899;BME280;4988;49.238;6.698;2023-05-01T01:21:54;99034.53;;;9.68;91.34
9899;BME280;4988;49.238;6.698;2023-05-01T01:24:43;99025.16;;;9.59;91.86
9899;BME280;4988;49.238;6.698;2023-05-01T01:36:19;99018.19;;;9.77;92.39
9899;BME280;4988;49.238;6.698;2023-05-01T01:38:54;99017.19;;;9.79;92.18
9899;BME280;4988;49.238;6.698;2023-05-01T01:41:30;99013.34;;;9.85;92.20
9899;BME280;4988;49.238;6.698;2023-05-01T01:44:05;99022.06;;;9.89;93.58
9899;BME280;4988;49.238;6.698;2023-05-01T01:46:35;99013.06;;;9.91;93.02
9899;BME280;4988;49.238;6.698;2023-05-01T01:49:04;99018.19;;;9.96;93.39
9899;BME280;4988;49.238;6.698;2023-05-01T01:51:31;99014.25;;;10.05;92.41
9899;BME280;4988;49.238;6.698;2023-05-01T01:53:57;99014.13;;;10.08;92.77
9899;BME280;4988;49.238;6.698;2023-05-01T01:56:25;99009.00;;;10.03;93.08
9899;BME280;4988;49.238;6.698;2023-05-01T01:58:52;99006.06;;;10.09;92.78
9899;BME280;4988;49.238;6.698;2023-05-01T02:01:18;99006.34;;;10.03;93.50
9899;BME280;4988;49.238;6.698;2023-05-01T02:03:46;99004.53;;;10.04;94.25
9899;BME280;4988;49.238;6.698;2023-05-01T02:06:12;99005.25;;;10.07;93.66
9899;BME280;4988;49.238;6.698;2023-05-01T02:08:40;98991.31;;;10.02;93.32
9899;BME280;4988;49.238;6.698;2023-05-01T02:11:06;99001.66;;;9.89;93.73
9899;BME280;4988;49.238;6.698;2023-05-01T02:13:34;99000.13;;;9.84;93.61
9899;BME280;4988;49.238;6.698;2023-05-01T02:16:01;99000.13;;;9.84;93.97
9899;BME280;4988;49.238;6.698;2023-05-01T02:18:27;99001.50;;;9.92;94.11
9899;BME280;4988;49.238;6.698;2023-05-01T02:20:54;98995.91;;;9.98;93.61
9899;BME280;4988;49.238;6.698;2023-05-01T02:23:20;98992.41;;;9.98;94.10
9899;BME280;4988;49.238;6.698;2023-05-01T02:25:47;98992.72;;;9.90;93.28
9899;BME280;4988;49.238;6.698;2023-05-01T02:28:20;98993.16;;;9.81;93.47
9899;BME280;4988;49.238;6.698;2023-05-01T02:30:46;98997.41;;;9.85;93.06
9899;BME280;4988;49.238;6.698;2023-05-01T02:33:12;98991.03;;;9.89;93.55
9899;BME280;4988;49.238;6.698;2023-05-01T02:35:39;98996.47;;;9.86;93.66
9899;BME280;4988;49.238;6.698;2023-05-01T02:38:05;98990.31;;;9.86;93.72
9899;BME280;4988;49.238;6.698;2023-05-01T02:40:30;98981.63;;;9.82;93.65
9899;BME280;4988;49.238;6.698;2023-05-01T02:42:58;98980.00;;;9.78;94.23
9899;BME280;4988;49.238;6.698;2023-05-01T02:45:25;98980.81;;;9.80;93.87
9899;BME280;4988;49.238;6.698;2023-05-01T02:47:55;98982.38;;;9.84;94.58
9899;BME280;4988;49.238;6.698;2023-05-01T02:50:23;98975.81;;;9.93;94.83
9899;BME280;4988;49.238;6.698;2023-05-01T02:52:50;98971.06;;;10.00;94.90
9899;BME280;4988;49.238;6.698;2023-05-01T02:55:16;98969.97;;;10.04;94.45
9899;BME280;4988;49.238;6.698;2023-05-01T02:57:42;98966.72;;;10.16;93.50
9899;BME280;4988;49.238;6.698;2023-05-01T03:00:08;98962.84;;;10.23;92.91
9899;BME280;4988;49.238;6.698;2023-05-01T03:02:38;98963.78;;;10.22;92.67
9899;BME280;4988;49.238;6.698;2023-05-01T03:05:03;98964.06;;;10.16;92.73
9899;BME280;4988;49.238;6.698;2023-05-01T03:07:29;98960.41;;;10.19;92.33
9899;BME280;4988;49.238;6.698;2023-05-01T03:09:59;98960.56;;;10.16;92.91
9899;BME280;4988;49.238;6.698;2023-05-01T03:12:27;98955.53;;;10.09;94.07
9899;BME280;4988;49.238;6.698;2023-05-01T03:14:52;98958.84;;;9.95;94.55
9899;BME280;4988;49.238;6.698;2023-05-01T03:17:18;98953.28;;;9.81;94.48
9899;BME280;4988;49.238;6.698;2023-05-01T03:19:43;98951.56;;;9.61;94.78
9899;BME280;4988;49.238;6.698;2023-05-01T03:22:09;98950.84;;;9.37;95.49
9899;BME280;4988;49.238;6.698;2023-05-01T03:24:35;98954.13;;;9.23;96.49
9899;BME280;4988;49.238;6.698;2023-05-01T03:27:00;98952.59;;;9.17;97.30
9899;BME280;4988;49.238;6.698;2023-05-01T03:29:26;98950.84;;;9.16;98.00
9899;BME280;4988;49.238;6.698;2023-05-01T03:31:51;98946.44;;;9.16;98.16
9899;BME280;4988;49.238;6.698;2023-05-01T03:34:17;98949.19;;;9.13;98.10
9899;BME280;4988;49.238;6.698;2023-05-01T03:36:42;98953.13;;;9.05;98.38
9899;BME280;4988;49.238;6.698;2023-05-01T03:39:08;98957.50;;;9.06;98.61
9899;BME280;4988;49.238;6.698;2023-05-01T03:41:33;98948.88;;;9.00;99.42
9899;BME280;4988;49.238;6.698;2023-05-01T03:43:58;98947.16;;;8.99;99.88
9899;BME280;4988;49.238;6.698;2023-05-01T03:46:24;98943.84;;;8.94;100.00
9899;BME280;4988;49.238;6.698;2023-05-01T03:48:49;98947.25;;;8.96;100.00
9899;BME280;4988;49.238;6.698;2023-05-01T03:51:14;98941.09;;;8.96;100.00
9899;BME280;4988;49.238;6.698;2023-05-01T03:53:41;98940.22;;;8.95;100.00
9899;BME280;4988;49.238;6.698;2023-05-01T03:56:06;98943.50;;;9.02;100.00
9899;BME280;4988;49.238;6.698;2023-05-01T03:58:32;98947.06;;;9.01;100.00
9899;BME280;4988;49.238;6.698;2023-05-01T04:00:57;98944.28;;;9.04;100.00
9899;BME280;4988;49.238;6.698;2023-05-01T04:03:25;98942.84;;;8.97;100.00
9899;BME280;4988;49.238;6.698;2023-05-01T04:05:50;98939.38;;;8.95;100.00
9899;BME280;4988;49.238;6.698;2023-05-01T04:08:17;98943.84;;;8.94;100.00
9899;BME280;4988;49.238;6.698;2023-05-01T04:10:43;98941.69;;;9.02;100.00
9899;BME280;4988;49.238;6.698;2023-05-01T04:13:08;98939.78;;;9.06;100.00
9899;BME280;4988;49.238;6.698;2023-05-01T04:15:35;98947.81;;;9.05;100.00
9899;BME280;4988;49.238;6.698;2023-05-01T04:18:00;98948.66;;;9.05;100.00
9899;BME280;4988;49.238;6.698;2023-05-01T04:20:25;98944.50;;;8.99;100.00
9899;BME280;4988;49.238;6.698;2023-05-01T04:22:51;98943.56;;;9.00;100.00
9899;BME280;4988;49.238;6.698;2023-05-01T04:25:16;98945.50;;;8.97;100.00
9899;BME280;4988;49.238;6.698;2023-05-01T04:27:42;98939.84;;;9.05;100.00
9899;BME280;4988;49.238;6.698;2023-05-01T04:30:07;98948.28;;;9.14;100.00
9899;BME280;4988;49.238;6.698;2023-05-01T04:32:33;98947.75;;;9.27;100.00
9899;BME280;4988;49.238;6.698;2023-05-01T04:34:59;98950.25;;;9.30;100.00
9899;BME280;4988;49.238;6.698;2023-05-01T04:37:25;98949.28;;;9.32;100.00
9899;BME280;4988;49.238;6.698;2023-05-01T04:39:50;98942.88;;;9.37;100.00
9899;BME280;4988;49.238;6.698;2023-05-01T04:42:15;98948.03;;;9.40;100.00
9899;BME280;4988;49.238;6.698;2023-05-01T04:44:41;98949.28;;;9.32;100.00
9899;BME280;4988;49.238;6.698;2023-05-01T04:47:07;98959.81;;;9.34;100.00
9899;BME280;4988;49.238;6.698;2023-05-01T04:49:32;98957.00;;;9.37;100.00
9899;BME280;4988;49.238;6.698;2023-05-01T04:51:58;98957.91;;;9.38;100.00
9899;BME280;4988;49.238;6.698;2023-05-01T04:54:23;98956.16;;;9.37;100.00
9899;BME280;4988;49.238;6.698;2023-05-01T04:56:49;98956.25;;;9.35;100.00
9899;BME280;4988;49.238;6.698;2023-05-01T04:59:15;98956.47;;;9.49;100.00
9899;BME280;4988;49.238;6.698;2023-05-01T05:01:41;98963.69;;;9.66;100.00
9899;BME280;4988;49.238;6.698;2023-05-01T05:04:06;98958.47;;;9.84;100.00
9899;BME280;4988;49.238;6.698;2023-05-01T05:06:32;98957.97;;;9.95;100.00
9899;BME280;4988;49.238;6.698;2023-05-01T05:08:57;98965.75;;;10.00;100.00
9899;BME280;4988;49.238;6.698;2023-05-01T05:11:22;98963.63;;;10.06;100.00
9899;BME280;4988;49.238;6.698;2023-05-01T05:13:48;98962.50;;;10.12;100.00
9899;BME280;4988;49.238;6.698;2023-05-01T05:16:13;98961.28;;;10.19;100.00
9899;BME280;4988;49.238;6.698;2023-05-01T05:18:39;98958.25;;;10.27;100.00
9899;BME280;4988;49.238;6.698;2023-05-01T05:21:05;98964.81;;;10.39;99.58
9899;BME280;4988;49.238;6.698;2023-05-01T05:23:31;98957.34;;;10.47;98.70
9899;BME280;4988;49.238;6.698;2023-05-01T05:25:57;98960.31;;;10.58;97.60
9899;BME280;4988;49.238;6.698;2023-05-01T05:28:25;98963.53;;;10.65;95.92
9899;BME280;4988;49.238;6.698;2023-05-01T05:30:51;98959.81;;;10.69;96.06
9899;BME280;4988;49.238;6.698;2023-05-01T05:33:16;98969.34;;;10.73;95.91
9899;BME280;4988;49.238;6.698;2023-05-01T05:35:41;98966.78;;;10.72;95.77
9899;BME280;4988;49.238;6.698;2023-05-01T05:38:07;98971.06;;;10.57;96.95
9899;BME280;4988;49.238;6.698;2023-05-01T05:40:32;98969.25;;;10.38;99.39
9899;BME280;4988;49.238;6.698;2023-05-01T05:42:58;98965.38;;;10.26;100.00
9899;BME280;4988;49.238;6.698;2023-05-01T05:45:23;98960.97;;;10.25;100.00
9899;BME280;4988;49.238;6.698;2023-05-01T05:47:49;98967.31;;;10.42;100.00
9899;BME280;4988;49.238;6.698;2023-05-01T05:50:14;98961.25;;;10.57;100.00
9899;BME280;4988;49.238;6.698;2023-05-01T05:52:40;98965.97;;;10.70;100.00
9899;BME280;4988;49.238;6.698;2023-05-01T05:55:06;98959.94;;;10.84;99.73
9899;BME280;4988;49.238;6.698;2023-05-01T05:57:31;98961.84;;;10.99;98.45
9899;BME280;4988;49.238;6.698;2023-05-01T05:59:58;98959.28;;;11.15;95.76
9899;BME280;4988;49.238;6.698;2023-05-01T06:02:23;98962.09;;;11.30;93.28
9899;BME280;4988;49.238;6.698;2023-05-01T06:04:49;98964.13;;;11.42;91.45
9899;BME280;4988;49.238;6.698;2023-05-01T06:07:14;98967.06;;;11.53;90.55
9899;BME280;4988;49.238;6.698;2023-05-01T06:09:40;98962.97;;;11.64;89.37
9899;BME280;4988;49.238;6.698;2023-05-01T06:12:05;98973.06;;;11.74;88.79
9899;BME280;4988;49.238;6.698;2023-05-01T06:14:31;98963.78;;;11.82;87.75
9899;BME280;4988;49.238;6.698;2023-05-01T06:16:56;98960.53;;;11.93;86.91
9899;BME280;4988;49.238;6.698;2023-05-01T06:19:22;98961.28;;;11.95;86.06
9899;BME280;4988;49.238;6.698;2023-05-01T06:21:47;98964.78;;;11.97;84.73
9899;BME280;4988;49.238;6.698;2023-05-01T06:24:12;98958.06;;;12.05;84.58
9899;BME280;4988;49.238;6.698;2023-05-01T06:26:38;98960.41;;;12.12;84.97
9899;BME280;4988;49.238;6.698;2023-05-01T06:29:03;98959.97;;;12.19;83.01
9899;BME280;4988;49.238;6.698;2023-05-01T06:31:28;98961.53;;;12.23;82.20
9899;BME280;4988;49.238;6.698;2023-05-01T06:33:53;98953.28;;;12.28;81.97
9899;BME280;4988;49.238;6.698;2023-05-01T06:36:19;98958.28;;;12.34;82.16
9899;BME280;4988;49.238;6.698;2023-05-01T06:38:44;98958.41;;;12.47;80.73
9899;BME280;4988;49.238;6.698;2023-05-01T06:41:13;98959.22;;;12.49;78.85
9899;BME280;4988;49.238;6.698;2023-05-01T06:43:39;98959.13;;;12.51;79.19
9899;BME280;4988;49.238;6.698;2023-05-01T06:46:04;98963.16;;;12.58;78.92
9899;BME280;4988;49.238;6.698;2023-05-01T06:48:29;98958.50;;;12.62;79.36
9899;BME280;4988;49.238;6.698;2023-05-01T06:50:55;98959.59;;;12.74;78.28
9899;BME280;4988;49.238;6.698;2023-05-01T06:53:20;98969.31;;;12.75;79.13
9899;BME280;4988;49.238;6.698;2023-05-01T06:55:45;98970.00;;;12.78;79.27
9899;BME280;4988;49.238;6.698;2023-05-01T06:58:11;98970.44;;;12.86;77.71
9899;BME280;4988;49.238;6.698;2023-05-01T07:00:36;98970.44;;;12.86;77.61
9899;BME280;4988;49.238;6.698;2023-05-01T07:03:02;98965.78;;;12.90;78.95
9899;BME280;4988;49.238;6.698;2023-05-01T07:05:28;98966.00;;;13.01;80.02
9899;BME280;4988;49.238;6.698;2023-05-01T07:07:54;98964.78;;;13.07;78.02
9899;BME280;4988;49.238;6.698;2023-05-01T07:10:19;98958.50;;;13.08;78.10
9899;BME280;4988;49.238;6.698;2023-05-01T07:12:44;98965.38;;;13.12;77.99
9899;BME280;4988;49.238;6.698;2023-05-01T07:15:10;98957.75;;;13.21;77.57
9899;BME280;4988;49.238;6.698;2023-05-01T07:17:36;98959.28;;;13.25;75.09
9899;BME280;4988;49.238;6.698;2023-05-01T07:20:02;98966.94;;;13.31;75.13
9899;BME280;4988;49.238;6.698;2023-05-01T07:22:37;98965.03;;;13.33;73.81
9899;BME280;4988;49.238;6.698;2023-05-01T07:25:08;98958.41;;;13.40;73.39
9899;BME280;4988;49.238;6.698;2023-05-01T07:27:33;98963.53;;;13.43;72.55
9899;BME280;4988;49.238;6.698;2023-05-01T07:30:00;98951.94;;;13.59;72.35
9899;BME280;4988;49.238;6.698;2023-05-01T07:32:26;98962.53;;;13.75;71.90
9899;BME280;4988;49.238;6.698;2023-05-01T07:34:51;98953.13;;;13.82;69.17
9899;BME280;4988;49.238;6.698;2023-05-01T07:37:16;98953.34;;;13.79;69.02
9899;BME280;4988;49.238;6.698;2023-05-01T07:39:43;98956.19;;;13.76;69.87
9899;BME280;4988;49.238;6.698;2023-05-01T07:42:08;98950.56;;;13.80;70.00
9899;BME280;4988;49.238;6.698;2023-05-01T07:44:33;98950.41;;;13.83;69.74
9899;BME280;4988;49.238;6.698;2023-05-01T07:47:03;98942.34;;;13.98;69.32
9899;BME280;4988;49.238;6.698;2023-05-01T07:49:29;98947.13;;;14.07;69.32
9899;BME280;4988;49.238;6.698;2023-05-01T07:51:54;98950.84;;;14.19;68.70
9899;BME280;4988;49.238;6.698;2023-05-01T07:54:20;98942.31;;;14.27;68.73
9899;BME280;4988;49.238;6.698;2023-05-01T07:56:46;98942.00;;;14.31;68.81
9899;BME280;4988;49.238;6.698;2023-05-01T07:59:12;98939.75;;;14.53;67.85
9899;BME280;4988;49.238;6.698;2023-05-01T08:01:37;98941.13;;;14.73;68.41
9899;BME280;4988;49.238;6.698;2023-05-01T08:04:03;98934.75;;;14.88;66.85
9899;BME280;4988;49.238;6.698;2023-05-01T08:06:29;98937.22;;;14.91;65.23
9899;BME280;4988;49.238;6.698;2023-05-01T08:08:54;98937.88;;;14.95;64.19
9899;BME280;4988;49.238;6.698;2023-05-01T08:11:19;98939.47;;;14.98;66.09
9899;BME280;4988;49.238;6.698;2023-05-01T08:13:45;98948.63;;;15.08;65.46
9899;BME280;4988;49.238;6.698;2023-05-01T08:16:10;98946.59;;;15.11;64.76
9899;BME280;4988;49.238;6.698;2023-05-01T08:18:35;98941.56;;;15.20;64.54
9899;BME280;4988;49.238;6.698;2023-05-01T08:21:01;98944.81;;;15.38;64.38
9899;BME280;4988;49.238;6.698;2023-05-01T08:23:26;98939.78;;;15.46;63.89
9899;BME280;4988;49.238;6.698;2023-05-01T08:25:51;98936.53;;;15.54;64.80
9899;BME280;4988;49.238;6.698;2023-05-01T08:28:17;98937.72;;;15.63;62.79
9899;BME280;4988;49.238;6.698;2023-05-01T08:30:46;98940.19;;;15.53;61.15
9899;BME280;4988;49.238;6.698;2023-05-01T08:33:13;98940.53;;;15.61;62.22
9899;BME280;4988;49.238;6.698;2023-05-01T08:35:38;98939.88;;;15.57;61.67
9899;BME280;4988;49.238;6.698;2023-05-01T08:38:04;98940.72;;;15.58;61.96
9899;BME280;4988;49.238;6.698;2023-05-01T08:40:31;98946.72;;;15.62;63.79
9899;BME280;4988;49.238;6.698;2023-05-01T08:43:00;98945.66;;;15.64;62.45
9899;BME280;4988;49.238;6.698;2023-05-01T08:45:26;98950.19;;;15.64;61.89
9899;BME280;4988;49.238;6.698;2023-05-01T08:47:53;98947.69;;;15.73;61.05
9899;BME280;4988;49.238;6.698;2023-05-01T08:50:20;98945.66;;;15.64;61.49
9899;BME280;4988;49.238;6.698;2023-05-01T08:52:49;98946.81;;;15.73;62.27
9899;BME280;4988;49.238;6.698;2023-05-01T08:55:15;98941.03;;;15.79;62.17
9899;BME280;4988;49.238;6.698;2023-05-01T08:57:45;98946.63;;;15.89;61.00
9899;BME280;4988;49.238;6.698;2023-05-01T09:00:16;98940.63;;;15.98;60.82
9899;BME280;4988;49.238;6.698;2023-05-01T09:02:42;98942.53;;;16.09;59.59
9899;BME280;4988;49.238;6.698;2023-05-01T09:05:08;98937.69;;;16.01;59.52
9899;BME280;4988;49.238;6.698;2023-05-01T09:07:35;98942.97;;;15.90;60.77
9899;BME280;4988;49.238;6.698;2023-05-01T09:10:01;98944.19;;;15.86;61.06
9899;BME280;4988;49.238;6.698;2023-05-01T09:12:27;98949.09;;;15.92;61.37
9899;BME280;4988;49.238;6.698;2023-05-01T09:14:55;98947.16;;;16.07;60.36
9899;BME280;4988;49.238;6.698;2023-05-01T09:17:21;98951.56;;;16.08;59.79
9899;BME280;4988;49.238;6.698;2023-05-01T09:19:47;98951.66;;;16.06;60.67
9899;BME280;4988;49.238;6.698;2023-05-01T09:22:14;98945.16;;;16.22;59.71
9899;BME280;4988;49.238;6.698;2023-05-01T09:24:39;98939.72;;;16.23;59.61
9899;BME280;4988;49.238;6.698;2023-05-01T09:27:05;98937.41;;;16.30;59.63
9899;BME280;4988;49.238;6.698;2023-05-01T09:29:42;98946.41;;;16.42;59.19
9899;BME280;4988;49.238;6.698;2023-05-01T09:34:37;98945.16;;;16.59;60.77
9899;BME280;4988;49.238;6.698;2023-05-01T09:37:03;98943.63;;;16.68;60.13
9899;BME280;4988;49.238;6.698;2023-05-01T09:39:28;98936.63;;;16.65;59.20
9899;BME280;4988;49.238;6.698;2023-05-01T09:41:54;98937.16;;;16.70;59.04
9899;BME280;4988;49.238;6.698;2023-05-01T09:44:19;98940.88;;;16.81;58.75
9899;BME280;4988;49.238;6.698;2023-05-01T09:46:45;98941.72;;;16.81;58.16
9899;BME280;4988;49.238;6.698;2023-05-01T09:49:11;98944.53;;;16.80;59.14
9899;BME280;4988;49.238;6.698;2023-05-01T09:51:37;98945.91;;;16.85;59.39
9899;BME280;4988;49.238;6.698;2023-05-01T09:54:03;98938.53;;;17.00;60.10
9899;BME280;4988;49.238;6.698;2023-05-01T09:56:33;98943.63;;;16.92;58.51
9899;BME280;4988;49.238;6.698;2023-05-01T09:59:17;98942.59;;;16.82;60.06
9899;BME280;4988;49.238;6.698;2023-05-01T10:01:45;98937.41;;;16.79;60.29
9899;BME280;4988;49.238;6.698;2023-05-01T10:04:12;98936.31;;;16.94;60.01
9899;BME280;4988;49.238;6.698;2023-05-01T10:06:38;98939.66;;;17.09;60.43
9899;BME280;4988;49.238;6.698;2023-05-01T10:09:04;98941.13;;;17.13;59.89
9899;BME280;4988;49.238;6.698;2023-05-01T10:11:49;98938.34;;;17.15;58.81
9899;BME280;4988;49.238;6.698;2023-05-01T10:14:16;98937.63;;;17.24;59.29
9899;BME280;4988;49.238;6.698;2023-05-01T10:16:41;98947.19;;;16.93;59.31
9899;BME280;4988;49.238;6.698;2023-05-01T10:19:07;98943.16;;;16.98;60.36
9899;BME280;4988;49.238;6.698;2023-05-01T10:21:34;98939.28;;;17.02;59.99
9899;BME280;4988;49.238;6.698;2023-05-01T10:24:01;98935.53;;;17.16;59.25
9899;BME280;4988;49.238;6.698;2023-05-01T10:26:34;98938.88;;;17.31;60.33
9899;BME280;4988;49.238;6.698;2023-05-01T10:29:00;98938.78;;;17.44;59.89
9899;BME280;4988;49.238;6.698;2023-05-01T10:31:26;98936.09;;;17.67;60.84
9899;BME280;4988;49.238;6.698;2023-05-01T10:33:52;98933.28;;;17.80;60.31
9899;BME280;4988;49.238;6.698;2023-05-01T10:36:30;98932.72;;;17.99;60.16
9899;BME280;4988;49.238;6.698;2023-05-01T10:38:57;98932.84;;;18.09;58.24
9899;BME280;4988;49.238;6.698;2023-05-01T10:44:26;98933.19;;;17.93;57.65
9899;BME280;4988;49.238;6.698;2023-05-01T10:46:53;98933.06;;;18.06;58.81
9899;BME280;4988;49.238;6.698;2023-05-01T10:49:18;98923.25;;;17.93;54.29
9899;BME280;4988;49.238;6.698;2023-05-01T10:51:57;98913.81;;;17.53;54.12
9899;BME280;4988;49.238;6.698;2023-05-01T10:54:26;98916.25;;;17.45;54.70
9899;BME280;4988;49.238;6.698;2023-05-01T10:56:54;98915.91;;;17.50;55.93
9899;BME280;4988;49.238;6.698;2023-05-01T10:59:19;98923.00;;;17.62;56.08
9899;BME280;4988;49.238;6.698;2023-05-01T11:01:46;98922.78;;;17.88;54.29
9899;BME280;4988;49.238;6.698;2023-05-01T11:09:41;98901.94;;;18.36;52.15
9899;BME280;4988;49.238;6.698;2023-05-01T11:12:08;98906.63;;;18.55;50.60
9899;BME280;4988;49.238;6.698;2023-05-01T11:22:51;98891.09;;;18.91;49.61
9899;BME280;4988;49.238;6.698;2023-05-01T11:25:18;98891.97;;;18.80;49.23
9899;BME280;4988;49.238;6.698;2023-05-01T11:27:48;98888.47;;;18.89;48.82
9899;BME280;4988;49.238;6.698;2023-05-01T11:30:15;98890.31;;;18.68;47.54
9899;BME280;4988;49.238;6.698;2023-05-01T11:32:45;98895.00;;;18.54;48.96
9899;BME280;4988;49.238;6.698;2023-05-01T11:35:17;98892.44;;;18.53;50.12
9899;BME280;4988;49.238;6.698;2023-05-01T11:37:43;98896.63;;;18.45;51.56
9899;BME280;4988;49.238;6.698;2023-05-01T11:40:19;98900.44;;;18.31;52.00
9899;BME280;4988;49.238;6.698;2023-05-01T11:42:46;98901.34;;;18.21;50.39
9899;BME280;4988;49.238;6.698;2023-05-01T11:45:11;98896.25;;;17.95;51.52
9899;BME280;4988;49.238;6.698;2023-05-01T11:47:37;98907.97;;;17.94;53.96
9899;BME280;4988;49.238;6.698;2023-05-01T11:50:05;98913.25;;;17.95;54.65
9899;BME280;4988;49.238;6.698;2023-05-01T11:52:40;98906.13;;;17.83;55.56
9899;BME280;4988;49.238;6.698;2023-05-01T11:55:06;98905.78;;;17.76;54.12
9899;BME280;4988;49.238;6.698;2023-05-01T11:57:46;98901.47;;;17.74;53.74
9899;BME280;4988;49.238;6.698;2023-05-01T12:00:25;98891.22;;;17.79;52.53
9899;BME280;4988;49.238;6.698;2023-05-01T12:02:59;98889.50;;;17.78;51.99
9899;BME280;4988;49.238;6.698;2023-05-01T12:05:26;98886.31;;;17.84;51.53
9899;BME280;4988;49.238;6.698;2023-05-01T12:10:35;98877.59;;;18.03;50.48
9899;BME280;4988;49.238;6.698;2023-05-01T12:13:04;98878.69;;;18.12;50.85
9899;BME280;4988;49.238;6.698;2023-05-01T12:15:31;98877.44;;;18.27;50.85
9899;BME280;4988;49.238;6.698;2023-05-01T12:17:58;98876.75;;;18.46;50.74
9899;BME280;4988;49.238;6.698;2023-05-01T12:20:38;98878.66;;;18.35;50.86
9899;BME280;4988;49.238;6.698;2023-05-01T12:23:05;98873.22;;;18.46;51.04
9899;BME280;4988;49.238;6.698;2023-05-01T12:25:34;98872.47;;;18.44;50.38
9899;BME280;4988;49.238;6.698;2023-05-01T12:28:01;98878.28;;;18.28;50.61
9899;BME280;4988;49.238;6.698;2023-05-01T12:30:28;98884.66;;;18.38;50.68
9899;BME280;4988;49.238;6.698;2023-05-01T12:32:56;98876.94;;;18.33;49.77
9899;BME280;4988;49.238;6.698;2023-05-01T12:35:21;98883.81;;;18.26;49.71
9899;BME280;4988;49.238;6.698;2023-05-01T12:37:47;98883.00;;;18.14;49.67
9899;BME280;4988;49.238;6.698;2023-05-01T12:40:13;98875.66;;;18.05;49.65
9899;BME280;4988;49.238;6.698;2023-05-01T12:42:39;98878.97;;;18.09;48.93
9899;BME280;4988;49.238;6.698;2023-05-01T12:45:05;98874.53;;;18.08;50.13
9899;BME280;4988;49.238;6.698;2023-05-01T12:47:37;98880.16;;;18.16;50.70
9899;BME280;4988;49.238;6.698;2023-05-01T12:50:03;98875.63;;;18.16;50.38
9899;BME280;4988;49.238;6.698;2023-05-01T12:52:29;98872.69;;;18.20;50.91
9899;BME280;4988;49.238;6.698;2023-05-01T12:55:05;98876.59;;;18.27;51.03
9899;BME280;4988;49.238;6.698;2023-05-01T12:57:32;98875.38;;;18.20;51.01
9899;BME280;4988;49.238;6.698;2023-05-01T13:00:02;98876.38;;;18.19;50.95
9899;BME280;4988;49.238;6.698;2023-05-01T13:02:32;98879.84;;;18.42;52.61
9899;BME280;4988;49.238;6.698;2023-05-01T13:05:10;98870.00;;;18.52;51.10
9899;BME280;4988;49.238;6.698;2023-05-01T13:07:37;98879.59;;;18.45;51.65
9899;BME280;4988;49.238;6.698;2023-05-01T13:10:04;98873.69;;;18.51;51.11
9899;BME280;4988;49.238;6.698;2023-05-01T13:12:31;98876.00;;;18.56;50.21
9899;BME280;4988;49.238;6.698;2023-05-01T13:14:57;98877.16;;;18.42;50.48
9899;BME280;4988;49.238;6.698;2023-05-01T13:17:27;98877.34;;;18.50;50.19
9899;BME280;4988;49.238;6.698;2023-05-01T13:22:30;98881.63;;;18.20;50.57
9899;BME280;4988;49.238;6.698;2023-05-01T13:24:56;98878.41;;;18.26;50.11
9899;BME280;4988;49.238;6.698;2023-05-01T13:27:22;98880.00;;;18.29;51.34
9899;BME280;4988;49.238;6.698;2023-05-01T13:29:52;98887.50;;;18.14;53.06
9899;BME280;4988;49.238;6.698;2023-05-01T13:32:20;98893.91;;;18.02;54.42
9899;BME280;4988;49.238;6.698;2023-05-01T13:34:45;98896.59;;;17.79;54.50
9899;BME280;4988;49.238;6.698;2023-05-01T13:37:11;98898.06;;;17.72;55.03
9899;BME280;4988;49.238;6.698;2023-05-01T13:39:40;98903.81;;;17.67;53.58
9899;BME280;4988;49.238;6.698;2023-05-01T13:42:05;98906.63;;;17.65;53.28
9899;BME280;4988;49.238;6.698;2023-05-01T13:44:32;98899.88;;;17.37;53.65
9899;BME280;4988;49.238;6.698;2023-05-01T13:47:01;98907.69;;;17.29;54.48
9899;BME280;4988;49.238;6.698;2023-05-01T13:49:26;98897.75;;;17.29;54.30
9899;BME280;4988;49.238;6.698;2023-05-01T13:51:52;98909.00;;;17.23;54.71
9899;BME280;4988;49.238;6.698;2023-05-01T13:54:19;98908.47;;;17.07;54.45
9899;BME280;4988;49.238;6.698;2023-05-01T13:56:44;98910.78;;;17.00;54.70
9899;BME280;4988;49.238;6.698;2023-05-01T13:59:10;98910.91;;;17.10;55.50
9899;BME280;4988;49.238;6.698;2023-05-01T14:01:40;98919.75;;;17.23;55.67